Time;durP1;ratioP1;P1;durP2;ratioP2;P2;SDS_P1;SDS_P2;PMS_P1;PMS_P2;Temp;Humidity;BMP_temperature;BMP_pressure;BME280_temperature;BME280_humidity;BME280_pressure;Samples;Min_cycle;Max_cycle;Signal;HPM_P1;HPM_P2
2023/01/06 00:01:26;;;;;;;15.77;7.38;;;10.20;99.90;;;;;;5083210;28;20088;-76
2023/01/06 00:03:57;;;;;;;10.57;5.03;;;10.10;99.90;;;;;;5074047;28;20071;-76
2023/01/06 00:06:26;;;;;;;16.08;6.72;;;10.30;98.60;;;;;;5069378;28;20452;-76
2023/01/06 00:08:55;;;;;;;14.25;6.43;;;10.40;99.20;;;;;;5084989;28;20090;-76
2023/01/06 00:11:22;;;;;;;13.65;6.07;;;10.30;99.10;;;;;;5087762;28;20506;-76
2023/01/06 00:13:48;;;;;;;15.52;7.68;;;10.30;99.30;;;;;;5085209;28;20377;-76
2023/01/06 00:16:17;;;;;;;14.45;7.15;;;10.30;99.50;;;;;;5064660;28;20045;-75
2023/01/06 00:18:44;;;;;;;14.07;6.75;;;10.20;99.70;;;;;;5098363;27;20025;-76
2023/01/06 00:21:13;;;;;;;14.27;7.07;;;10.10;99.90;;;;;;5062534;28;20142;-74
2023/01/06 00:23:39;;;;;;;13.55;6.78;;;10.00;99.90;;;;;;5034702;28;20041;-76
2023/01/06 00:26:07;;;;;;;12.55;6.30;;;10.00;99.90;;;;;;5062074;28;20047;-76
2023/01/06 00:28:33;;;;;;;13.95;6.95;;;9.90;99.90;;;;;;5068789;28;20033;-77
2023/01/06 00:31:06;;;;;;;13.60;6.38;;;9.90;99.90;;;;;;5061835;28;20039;-75
2023/01/06 00:33:32;;;;;;;13.52;6.80;;;9.80;99.90;;;;;;5059021;28;20037;-75
2023/01/06 00:35:58;;;;;;;14.07;6.57;;;9.70;99.90;;;;;;5076409;28;20041;-76
2023/01/06 00:38:24;;;;;;;10.43;5.40;;;9.80;99.90;;;;;;5060046;28;20033;-76
2023/01/06 00:40:50;;;;;;;9.70;4.32;;;9.90;99.00;;;;;;5058994;28;20103;-75
2023/01/06 00:43:16;;;;;;;8.55;3.90;;;10.00;98.80;;;;;;5066760;28;20071;-77
2023/01/06 00:45:42;;;;;;;11.20;4.85;;;10.00;98.10;;;;;;5057916;28;20028;-75
2023/01/06 00:48:07;;;;;;;7.40;3.22;;;10.00;98.50;;;;;;5057809;28;20052;-76
2023/01/06 00:50:33;;;;;;;6.50;3.03;;;10.20;97.60;;;;;;5059297;28;20525;-75
2023/01/06 00:53:00;;;;;;;6.15;3.00;;;10.10;97.30;;;;;;5061553;28;20045;-76
2023/01/06 00:55:26;;;;;;;7.40;3.03;;;10.20;97.20;;;;;;5056261;28;20067;-75
2023/01/06 00:57:52;;;;;;;5.95;3.10;;;10.10;97.30;;;;;;5048370;28;20064;-77
2023/01/06 01:00:19;;;;;;;7.38;2.88;;;10.10;97.30;;;;;;5062633;28;20465;-76
2023/01/06 01:02:44;;;;;;;6.85;2.83;;;10.00;97.50;;;;;;5061770;28;20064;-76
2023/01/06 01:05:10;;;;;;;7.65;3.03;;;10.00;97.60;;;;;;5071487;28;20087;-73
2023/01/06 01:07:36;;;;;;;7.57;3.50;;;9.90;97.90;;;;;;5056513;28;20029;-73
2023/01/06 01:10:02;;;;;;;6.78;3.55;;;10.00;97.80;;;;;;5060556;28;20037;-72
2023/01/06 01:12:28;;;;;;;7.65;3.15;;;9.90;98.20;;;;;;5073474;28;20418;-72
2023/01/06 01:14:54;;;;;;;10.40;4.80;;;9.90;98.20;;;;;;5072833;28;20022;-73
2023/01/06 01:17:21;;;;;;;9.55;4.80;;;9.80;98.60;;;;;;5064020;28;20124;-72
2023/01/06 01:19:48;;;;;;;10.00;4.38;;;9.80;98.90;;;;;;5071308;28;20399;-73
2023/01/06 01:22:14;;;;;;;;;;;9.80;99.10;;;;;;5075634;28;20032;-73
2023/01/06 01:24:40;;;;;;;9.63;4.82;;;9.80;99.30;;;;;;5089686;28;20272;-73
2023/01/06 01:27:07;;;;;;;8.90;4.45;;;9.70;99.30;;;;;;5075383;28;20032;-73
2023/01/06 01:29:33;;;;;;;10.05;4.90;;;9.70;99.30;;;;;;5069789;28;20043;-73
2023/01/06 01:31:59;;;;;;;9.23;4.25;;;9.60;99.30;;;;;;5077704;28;20032;-72
2023/01/06 01:34:25;;;;;;;8.63;3.50;;;9.70;99.20;;;;;;5079449;28;20037;-73
2023/01/06 01:36:53;;;;;;;7.15;2.80;;;9.80;99.10;;;;;;5092323;28;20054;-73
2023/01/06 01:39:22;;;;;;;8.45;3.28;;;9.70;98.60;;;;;;5082798;28;20509;-73
2023/01/06 01:41:48;;;;;;;8.50;3.65;;;9.80;98.70;;;;;;5077691;28;20044;-72
2023/01/06 01:44:45;;;;;;;9.15;2.33;;;9.70;98.90;;;;;;5075150;28;20032;-73
2023/01/06 01:47:14;;;;;;;7.30;3.17;;;10.00;98.00;;;;;;5075811;28;20119;-73
2023/01/06 01:49:43;;;;;;;7.25;3.20;;;9.90;98.40;;;;;;5079675;28;20081;-73
2023/01/06 01:52:10;;;;;;;8.23;3.55;;;9.70;98.80;;;;;;5079409;28;20032;-73
2023/01/06 01:54:38;;;;;;;9.07;4.13;;;9.60;99.00;;;;;;5082577;28;20028;-72
2023/01/06 01:57:09;;;;;;;7.35;3.70;;;9.50;99.30;;;;;;5078621;28;20495;-73
2023/01/06 01:59:37;;;;;;;8.98;3.70;;;9.50;99.50;;;;;;5071137;28;20043;-73
2023/01/06 02:02:03;;;;;;;7.40;3.35;;;9.40;99.60;;;;;;5075063;28;20637;-72
2023/01/06 02:04:32;;;;;;;4.90;1.90;;;9.40;99.50;;;;;;5072207;28;20028;-72
2023/01/06 02:06:58;;;;;;;3.50;1.60;;;9.50;98.20;;;;;;5058254;28;20539;-72
2023/01/06 02:09:42;;;;;;;5.75;1.83;;;9.70;98.10;;;;;;5053025;28;20123;-72
2023/01/06 02:12:09;;;;;;;4.47;1.55;;;9.70;98.00;;;;;;5054343;28;20041;-72
2023/01/06 02:14:35;;;;;;;5.15;1.52;;;9.70;97.60;;;;;;5081240;28;20074;-72
2023/01/06 02:17:07;;;;;;;4.13;1.63;;;9.60;97.60;;;;;;5075485;28;20052;-72
2023/01/06 02:20:11;;;;;;;4.45;1.55;;;9.60;97.70;;;;;;5070826;28;20129;-72
2023/01/06 02:22:52;;;;;;;3.95;1.60;;;9.60;97.50;;;;;;5092874;28;20074;-73
2023/01/06 02:25:40;;;;;;;4.95;1.80;;;9.50;97.80;;;;;;5079774;28;20479;-73
2023/01/06 02:28:44;;;;;;;4.53;1.40;;;9.40;97.90;;;;;;5079100;28;20032;-72
2023/01/06 02:31:31;;;;;;;4.70;1.65;;;9.40;97.90;;;;;;5078568;28;20031;-73
2023/01/06 02:34:25;;;;;;;5.53;1.77;;;9.20;98.10;;;;;;5085678;28;20028;-72
2023/01/06 02:37:13;;;;;;;4.38;2.10;;;9.20;98.30;;;;;;5096641;28;20041;-72
2023/01/06 02:40:08;;;;;;;5.15;2.13;;;9.20;98.70;;;;;;5077006;28;20119;-73
2023/01/06 02:43:01;;;;;;;6.07;2.17;;;9.20;98.80;;;;;;5086353;28;20043;-72
2023/01/06 02:45:41;;;;;;;5.10;2.03;;;9.20;98.80;;;;;;5081793;28;20456;-72
2023/01/06 02:48:42;;;;;;;5.75;2.20;;;9.30;98.70;;;;;;5074448;28;20550;-72
2023/01/06 02:51:30;;;;;;;5.07;2.05;;;9.20;98.60;;;;;;5058140;28;20045;-73
2023/01/06 02:54:24;;;;;;;5.82;2.40;;;9.20;98.60;;;;;;5074401;28;20425;-72
2023/01/06 02:57:06;;;;;;;4.88;1.80;;;9.20;98.60;;;;;;5079750;28;20052;-73
2023/01/06 02:59:38;;;;;;;4.80;2.05;;;9.30;98.70;;;;;;5076411;28;20046;-72
2023/01/06 03:02:08;;;;;;;5.47;2.30;;;9.30;98.50;;;;;;5072957;28;20028;-72
2023/01/06 03:04:42;;;;;;;6.60;2.55;;;9.20;98.70;;;;;;5072345;28;20441;-72
2023/01/06 03:07:13;;;;;;;4.95;1.70;;;9.30;98.80;;;;;;5070002;28;20043;-73
2023/01/06 03:09:39;;;;;;;4.35;1.65;;;9.30;98.50;;;;;;5077641;28;20044;-72
2023/01/06 03:12:35;;;;;;;6.43;2.03;;;9.10;98.70;;;;;;5092240;28;20078;-72
2023/01/06 03:15:02;;;;;;;5.03;1.83;;;9.10;99.00;;;;;;5090489;28;20047;-73
2023/01/06 03:17:28;;;;;;;4.93;1.85;;;9.10;99.00;;;;;;5080116;28;20090;-72
2023/01/06 03:19:55;;;;;;;6.18;2.08;;;9.00;99.20;;;;;;5080182;28;20036;-72
2023/01/06 03:22:22;;;;;;;5.13;2.15;;;9.10;99.40;;;;;;5083178;28;20376;-73
2023/01/06 03:24:49;;;;;;;6.07;2.05;;;9.00;99.50;;;;;;5081088;28;20329;-72
2023/01/06 03:27:18;;;;;;;6.00;2.75;;;9.00;99.40;;;;;;5082317;28;20361;-72
2023/01/06 03:29:45;;;;;;;6.93;2.58;;;8.90;99.40;;;;;;5079108;28;20533;-72
2023/01/06 03:32:25;;;;;;;5.68;2.47;;;8.90;99.60;;;;;;5069844;28;20034;-72
2023/01/06 03:34:57;;;;;;;6.82;2.72;;;8.80;99.70;;;;;;5066646;28;20044;-73
2023/01/06 03:37:58;;;;;;;5.88;2.60;;;8.80;99.80;;;;;;5071052;28;20099;-73
2023/01/06 03:40:37;;;;;;;7.18;2.90;;;8.80;99.90;;;;;;5064614;28;20020;-72
2023/01/06 03:43:15;;;;;;;;;;;8.70;99.90;;;;;;5084376;28;20032;-73
2023/01/06 03:45:49;;;;;;;5.90;2.83;;;8.80;99.70;;;;;;5098899;28;19908;-73
2023/01/06 03:48:43;;;;;;;4.90;1.90;;;8.80;99.70;;;;;;5077030;28;20124;-72
2023/01/06 03:51:26;;;;;;;6.20;2.05;;;8.80;99.80;;;;;;5089688;28;20033;-72
2023/01/06 03:54:17;;;;;;;5.88;2.08;;;8.70;99.60;;;;;;5076484;28;20117;-73
2023/01/06 03:57:01;;;;;;;5.00;1.50;;;8.80;99.20;;;;;;5069885;28;20039;-73
2023/01/06 03:59:31;;;;;;;5.32;1.83;;;8.80;99.30;;;;;;5089393;28;20461;-72
2023/01/06 04:01:58;;;;;;;6.55;2.08;;;8.80;99.20;;;;;;5074611;28;20036;-72
2023/01/06 04:04:34;;;;;;;4.97;1.90;;;8.80;99.40;;;;;;5075447;28;20044;-73
2023/01/06 04:06:59;;;;;;;5.43;2.30;;;8.80;99.50;;;;;;5079642;28;20032;-72
2023/01/06 04:09:25;;;;;;;5.10;1.90;;;8.80;99.70;;;;;;5082075;28;20054;-73
2023/01/06 04:14:36;;;;;;;5.78;1.98;;;8.80;99.60;;;;;;5079430;28;20043;-73
2023/01/06 04:17:02;;;;;;;5.32;2.05;;;8.90;99.50;;;;;;5084676;28;20130;-73
2023/01/06 04:19:28;;;;;;;4.40;1.80;;;9.10;99.40;;;;;;5079809;28;20036;-73
2023/01/06 04:21:56;;;;;;;5.15;2.22;;;9.10;99.30;;;;;;5076752;28;20538;-72
2023/01/06 04:24:22;;;;;;;5.47;2.20;;;9.10;99.40;;;;;;5090802;28;20133;-73
2023/01/06 04:26:48;;;;;;;5.03;2.05;;;9.00;99.40;;;;;;5088557;28;20058;-73
2023/01/06 04:29:14;;;;;;;4.22;1.92;;;8.90;99.60;;;;;;5062289;28;20040;-73
2023/01/06 04:31:40;;;;;;;5.50;2.35;;;8.90;99.80;;;;;;5092003;28;20056;-73
2023/01/06 04:34:06;;;;;;;5.30;2.38;;;8.80;99.90;;;;;;5079698;28;20044;-73
2023/01/06 04:36:32;;;;;;;7.70;2.80;;;8.70;99.90;;;;;;5080421;28;20043;-73
2023/01/06 04:38:58;;;;;;;5.05;2.08;;;8.70;99.90;;;;;;5077498;28;20032;-72
2023/01/06 04:41:25;;;;;;;5.57;1.98;;;8.80;99.90;;;;;;5082601;27;20036;-72
2023/01/06 04:43:51;;;;;;;4.60;2.00;;;8.70;99.90;;;;;;5078528;28;20043;-72
2023/01/06 04:46:17;;;;;;;5.30;2.50;;;8.70;99.90;;;;;;5073597;28;20040;-73
2023/01/06 04:48:42;;;;;;;4.93;2.03;;;8.70;99.90;;;;;;5091335;28;20028;-73
2023/01/06 04:51:10;;;;;;;4.38;1.95;;;8.70;99.90;;;;;;5075002;28;20047;-72
2023/01/06 04:53:38;;;;;;;5.78;2.15;;;8.60;99.90;;;;;;5095918;28;20060;-73
2023/01/06 04:56:06;;;;;;;4.25;2.00;;;8.60;99.90;;;;;;5075940;28;20036;-73
2023/01/06 04:58:33;;;;;;;6.20;2.58;;;8.60;99.90;;;;;;5070264;28;20049;-72
2023/01/06 05:01:11;;;;;;;5.38;2.47;;;8.60;99.90;;;;;;5075484;28;20056;-75
2023/01/06 05:03:40;;;;;;;7.28;2.47;;;8.60;99.90;;;;;;5083649;28;20055;-75
2023/01/06 05:06:08;;;;;;;5.50;2.45;;;8.60;99.90;;;;;;5077205;28;20040;-75
2023/01/06 05:08:35;;;;;;;6.45;2.28;;;8.60;99.90;;;;;;5080564;28;20112;-72
2023/01/06 05:11:08;;;;;;;5.68;2.60;;;8.50;99.90;;;;;;5081616;28;20536;-73
2023/01/06 05:13:34;;;;;;;4.90;1.90;;;8.40;99.90;;;;;;5079338;28;20032;-73
2023/01/06 05:16:04;;;;;;;5.15;2.40;;;8.50;99.90;;;;;;5091139;28;20028;-72
2023/01/06 05:18:30;;;;;;;5.45;2.20;;;8.60;99.90;;;;;;5075810;28;20062;-72
2023/01/06 05:20:56;;;;;;;5.20;2.20;;;8.60;99.90;;;;;;5074950;28;20036;-73
2023/01/06 05:23:22;;;;;;;4.75;2.00;;;8.50;99.90;;;;;;5044470;28;20032;-73
2023/01/06 05:25:51;;;;;;;4.82;1.95;;;8.50;99.90;;;;;;5063101;28;20032;-73
2023/01/06 05:28:18;;;;;;;5.85;1.98;;;8.40;99.90;;;;;;5082220;28;20043;-73
2023/01/06 05:30:44;;;;;;;5.18;1.77;;;8.40;99.90;;;;;;5078603;28;20058;-73
2023/01/06 05:33:10;;;;;;;5.40;1.90;;;8.40;99.90;;;;;;5076146;28;20044;-73
2023/01/06 05:35:36;;;;;;;5.38;2.03;;;8.30;99.90;;;;;;5078344;28;20050;-72
2023/01/06 05:38:03;;;;;;;5.13;2.08;;;8.30;99.90;;;;;;5072759;28;20031;-73
2023/01/06 05:40:28;;;;;;;4.65;1.80;;;8.40;99.90;;;;;;5075977;28;20033;-73
2023/01/06 05:42:55;;;;;;;5.05;2.10;;;8.30;99.90;;;;;;5069225;28;20043;-74
2023/01/06 05:45:22;;;;;;;4.72;1.95;;;8.40;99.90;;;;;;5075847;28;20024;-73
2023/01/06 05:47:49;;;;;;;6.15;2.25;;;8.50;99.90;;;;;;5076779;28;20035;-74
2023/01/06 05:50:15;;;;;;;6.88;2.60;;;8.50;99.90;;;;;;5079208;28;20361;-73
2023/01/06 05:52:41;;;;;;;6.25;2.53;;;8.40;99.90;;;;;;5078921;28;20033;-73
2023/01/06 05:55:09;;;;;;;6.07;2.60;;;8.30;99.90;;;;;;5081866;28;20119;-73
2023/01/06 05:57:36;;;;;;;5.63;2.78;;;8.30;99.90;;;;;;5080618;28;20119;-74
2023/01/06 06:00:07;;;;;;;5.95;2.50;;;8.30;99.90;;;;;;5078691;28;20490;-73
2023/01/06 06:02:33;;;;;;;6.78;3.13;;;8.30;99.90;;;;;;5094557;28;20045;-74
2023/01/06 06:04:59;;;;;;;6.03;2.40;;;8.40;99.90;;;;;;5092802;28;20072;-72
2023/01/06 06:07:24;;;;;;;7.15;2.85;;;8.40;99.90;;;;;;5076815;28;20048;-73
2023/01/06 06:09:50;;;;;;;5.95;2.60;;;8.50;99.90;;;;;;5094855;28;20043;-73
2023/01/06 06:12:16;;;;;;;10.35;3.33;;;8.50;99.90;;;;;;5078999;28;20051;-73
2023/01/06 06:14:43;;;;;;;7.72;3.50;;;8.40;99.90;;;;;;5078654;28;20039;-73
2023/01/06 06:17:09;;;;;;;6.45;3.25;;;8.30;99.90;;;;;;5093641;28;20515;-73
2023/01/06 06:19:34;;;;;;;5.70;2.70;;;8.20;99.90;;;;;;5077798;28;20062;-73
2023/01/06 06:22:00;;;;;;;7.55;2.75;;;8.20;99.90;;;;;;5083085;28;20052;-73
2023/01/06 06:24:26;;;;;;;6.28;3.10;;;8.20;99.90;;;;;;5076993;28;20085;-73
2023/01/06 06:26:52;;;;;;;7.03;3.08;;;8.20;99.90;;;;;;5090645;28;20033;-74
2023/01/06 06:29:18;;;;;;;6.55;3.03;;;8.10;99.90;;;;;;5091295;28;20085;-74
2023/01/06 06:31:44;;;;;;;5.13;2.42;;;8.00;99.90;;;;;;5081899;28;20044;-73
2023/01/06 06:34:11;;;;;;;7.57;3.53;;;8.00;99.90;;;;;;5070160;28;20041;-73
2023/01/06 06:36:37;;;;;;;8.35;3.42;;;8.00;99.90;;;;;;5062735;28;20047;-73
2023/01/06 06:39:03;;;;;;;5.50;2.53;;;8.10;99.90;;;;;;5056283;28;20033;-73
2023/01/06 06:41:29;;;;;;;5.95;2.63;;;8.10;99.90;;;;;;5055738;28;20372;-74
2023/01/06 06:43:55;;;;;;;6.88;2.70;;;7.90;99.90;;;;;;5046191;28;20037;-74
2023/01/06 06:46:21;;;;;;;7.85;2.47;;;7.80;99.90;;;;;;5045642;28;20047;-73
2023/01/06 06:48:51;;;;;;;5.95;2.83;;;7.80;99.90;;;;;;5059841;28;20036;-73
2023/01/06 06:51:19;;;;;;;5.82;2.90;;;7.80;99.90;;;;;;5054658;28;20075;-73
2023/01/06 06:53:46;;;;;;;7.82;3.40;;;7.80;99.90;;;;;;5055021;28;20067;-73
2023/01/06 06:56:13;;;;;;;6.38;2.60;;;7.90;99.90;;;;;;5064739;28;20415;-74
2023/01/06 06:58:39;;;;;;;7.82;2.72;;;7.80;99.90;;;;;;5064304;28;21104;-75
2023/01/06 07:01:12;;;;;;;5.15;2.60;;;7.80;99.90;;;;;;5060553;28;20025;-74
2023/01/06 07:03:38;;;;;;;5.00;2.15;;;7.90;99.90;;;;;;5072483;28;20032;-74
2023/01/06 07:06:07;;;;;;;5.28;2.20;;;7.90;99.90;;;;;;5086476;28;20036;-73
2023/01/06 07:08:34;;;;;;;4.45;2.05;;;7.90;99.90;;;;;;5083588;28;20062;-74
2023/01/06 07:11:00;;;;;;;;;;;7.90;99.90;;;;;;5079894;28;20032;-72
2023/01/06 07:13:26;;;;;;;6.07;2.50;;;7.80;99.90;;;;;;5079404;28;20003;-73
2023/01/06 07:15:52;;;;;;;6.57;2.90;;;7.80;99.90;;;;;;5095071;28;20032;-73
2023/01/06 07:18:18;;;;;;;8.93;3.35;;;7.80;99.90;;;;;;5069221;28;20552;-74
2023/01/06 07:20:50;;;;;;;6.82;2.40;;;7.80;99.90;;;;;;5083464;28;20036;-73
2023/01/06 07:23:16;;;;;;;5.57;2.58;;;7.80;99.90;;;;;;5061023;28;20059;-74
2023/01/06 07:25:42;;;;;;;6.43;2.45;;;7.70;99.90;;;;;;5073623;28;20035;-73
2023/01/06 07:28:08;;;;;;;5.95;2.95;;;7.70;99.90;;;;;;5071426;28;20040;-74
2023/01/06 07:30:35;;;;;;;6.72;2.53;;;7.70;99.90;;;;;;5073591;28;20071;-72
2023/01/06 07:33:02;;;;;;;9.20;4.10;;;7.90;99.90;;;;;;5068776;28;20033;-73
2023/01/06 07:35:28;;;;;;;6.88;3.10;;;8.10;99.90;;;;;;5066883;28;20051;-74
2023/01/06 07:37:55;;;;;;;6.60;2.70;;;8.00;99.90;;;;;;5076451;28;20990;-74
2023/01/06 07:40:22;;;;;;;6.97;2.92;;;8.10;99.90;;;;;;5063546;28;20135;-74
2023/01/06 07:42:48;;;;;;;5.82;2.20;;;8.20;99.90;;;;;;5090351;28;20043;-74
2023/01/06 07:45:13;;;;;;;8.07;2.80;;;8.30;99.90;;;;;;5041211;28;20033;-74
2023/01/06 07:47:39;;;;;;;5.72;2.70;;;8.30;99.90;;;;;;5060049;28;20065;-73
2023/01/06 07:50:06;;;;;;;7.00;2.70;;;8.30;99.90;;;;;;5060402;28;20044;-73
2023/01/06 07:52:32;;;;;;;6.47;2.72;;;8.30;99.90;;;;;;5067876;28;20029;-74
2023/01/06 07:54:58;;;;;;;6.10;3.20;;;8.30;99.90;;;;;;5084536;28;20166;-74
2023/01/06 07:57:28;;;;;;;6.32;2.80;;;8.30;99.90;;;;;;5071343;28;20024;-74
2023/01/06 07:59:56;;;;;;;6.05;2.45;;;8.40;99.90;;;;;;5081003;28;20050;-75
2023/01/06 08:02:22;;;;;;;6.72;2.72;;;8.50;99.90;;;;;;5087218;28;20028;-74
2023/01/06 08:04:49;;;;;;;4.97;1.92;;;8.70;99.90;;;;;;5076902;27;20592;-76
2023/01/06 08:07:16;;;;;;;6.55;2.67;;;8.80;99.90;;;;;;5081790;27;20465;-74
2023/01/06 08:09:42;;;;;;;5.93;2.55;;;9.00;99.90;;;;;;5050223;28;20500;-73
2023/01/06 08:12:08;;;;;;;4.95;2.30;;;9.30;99.90;;;;;;5060671;28;20112;-75
2023/01/06 08:14:35;;;;;;;4.70;2.05;;;9.50;99.90;;;;;;5068585;28;20058;-73
2023/01/06 08:17:00;;;;;;;5.25;2.08;;;9.70;99.90;;;;;;5084591;28;20047;-74
2023/01/06 08:19:26;;;;;;;5.43;2.60;;;9.70;99.80;;;;;;5077963;28;20612;-74
2023/01/06 08:21:52;;;;;;;4.72;2.17;;;9.80;99.50;;;;;;5084729;28;20028;-74
2023/01/06 08:24:18;;;;;;;6.78;2.47;;;10.10;99.30;;;;;;5077422;28;20047;-74
2023/01/06 08:26:44;;;;;;;5.28;2.42;;;10.50;98.70;;;;;;5080416;27;20067;-73
2023/01/06 08:29:11;;;;;;;5.85;2.55;;;10.40;98.50;;;;;;5079531;28;20098;-73
2023/01/06 08:31:37;;;;;;;5.78;2.53;;;10.60;98.80;;;;;;5086623;28;20059;-73
2023/01/06 08:34:04;;;;;;;6.72;3.05;;;12.60;97.20;;;;;;5087237;28;20040;-74
2023/01/06 08:36:30;;;;;;;5.93;3.03;;;14.20;96.20;;;;;;5077451;28;20483;-74
2023/01/06 08:38:56;;;;;;;6.32;3.13;;;15.30;94.70;;;;;;5077348;28;20127;-75
2023/01/06 08:41:22;;;;;;;6.00;3.05;;;16.20;93.60;;;;;;5053600;28;20123;-74
2023/01/06 08:43:49;;;;;;;7.43;3.53;;;16.90;92.20;;;;;;5060111;28;20702;-74
2023/01/06 08:46:19;;;;;;;9.02;3.83;;;17.40;92.10;;;;;;5051801;28;20036;-75
2023/01/06 08:48:46;;;;;;;6.20;3.67;;;17.60;91.20;;;;;;5069029;28;20048;-74
2023/01/06 08:51:16;;;;;;;7.50;3.65;;;17.70;91.30;;;;;;5058415;28;20044;-75
2023/01/06 08:53:46;;;;;;;7.63;3.50;;;18.10;91.40;;;;;;5053967;28;20041;-74
2023/01/06 08:56:16;;;;;;;6.75;3.40;;;18.00;91.50;;;;;;5074240;27;20043;-74
2023/01/06 08:58:41;;;;;;;9.93;4.80;;;17.40;91.00;;;;;;5058290;28;20033;-74
2023/01/06 09:01:17;;;;;;;7.78;4.28;;;16.30;91.50;;;;;;5059356;28;20095;-73
2023/01/06 09:03:43;;;;;;;7.95;4.30;;;15.40;92.10;;;;;;5051122;28;20040;-75
2023/01/06 09:06:10;;;;;;;9.82;4.65;;;14.80;92.70;;;;;;5056544;28;20089;-74
2023/01/06 09:08:36;;;;;;;10.90;4.63;;;14.20;93.70;;;;;;5044141;28;20052;-74
2023/01/06 09:11:06;;;;;;;8.00;5.05;;;13.80;93.90;;;;;;5070132;28;20039;-73
2023/01/06 09:13:33;;;;;;;9.98;5.47;;;13.70;94.20;;;;;;5080932;28;20036;-73
2023/01/06 09:15:59;;;;;;;8.52;4.78;;;13.50;94.40;;;;;;5057917;28;20041;-73
2023/01/06 09:18:25;;;;;;;7.55;4.50;;;13.40;94.50;;;;;;5053258;28;20039;-74
2023/01/06 09:20:50;;;;;;;8.75;4.20;;;13.40;94.50;;;;;;5070657;28;20371;-74
2023/01/06 09:23:16;;;;;;;7.05;3.70;;;13.50;94.50;;;;;;5076084;28;20028;-73
2023/01/06 09:25:42;;;;;;;6.88;3.92;;;13.60;94.30;;;;;;5076100;28;20106;-73
2023/01/06 09:28:09;;;;;;;8.82;4.47;;;13.50;94.20;;;;;;5071839;28;20041;-75
2023/01/06 09:30:35;;;;;;;;;;;13.50;94.20;;;;;;5058178;28;20118;-74
2023/01/06 09:33:01;;;;;;;6.18;3.40;;;13.70;93.70;;;;;;5077198;28;19940;-76
2023/01/06 09:35:26;;;;;;;5.75;3.00;;;14.00;93.40;;;;;;5090095;28;20081;-74
2023/01/06 09:37:52;;;;;;;5.40;3.33;;;14.30;93.10;;;;;;5062886;28;20036;-73
2023/01/06 09:40:28;;;;;;;8.45;3.45;;;14.70;92.50;;;;;;5078897;28;20041;-74
2023/01/06 09:43:14;;;;;;;5.95;3.35;;;15.10;92.30;;;;;;5080587;28;20118;-74
2023/01/06 09:45:49;;;;;;;7.10;3.75;;;15.40;91.90;;;;;;5076536;28;20123;-74
2023/01/06 09:48:20;;;;;;;6.03;3.35;;;15.50;91.60;;;;;;5058292;28;20040;-75
2023/01/06 09:50:52;;;;;;;6.45;3.22;;;15.70;91.50;;;;;;5065956;28;20371;-74
2023/01/06 09:53:38;;;;;;;6.05;3.13;;;15.70;91.40;;;;;;5087634;28;20033;-74
2023/01/06 09:56:10;;;;;;;5.82;2.85;;;15.90;91.10;;;;;;5076385;28;20384;-74
2023/01/06 09:58:49;;;;;;;7.55;3.20;;;16.10;90.70;;;;;;5065286;28;20056;-74
2023/01/06 10:01:22;;;;;;;6.63;3.65;;;16.30;90.70;;;;;;5090719;28;20120;-73
2023/01/06 10:03:48;;;;;;;5.70;3.30;;;16.40;90.60;;;;;;5080239;28;20043;-74
2023/01/06 10:06:36;;;;;;;5.18;3.05;;;16.50;90.40;;;;;;5078528;28;20138;-75
2023/01/06 10:09:09;;;;;;;9.20;3.28;;;16.70;90.40;;;;;;5067843;28;20037;-73
2023/01/06 10:11:55;;;;;;;5.82;2.90;;;16.90;90.30;;;;;;5076682;28;20115;-74
2023/01/06 10:14:37;;;;;;;4.72;2.75;;;17.20;90.10;;;;;;5017022;28;20032;-74
2023/01/06 10:17:31;;;;;;;5.40;2.78;;;17.40;90.00;;;;;;5089039;28;20033;-75
2023/01/06 10:20:16;;;;;;;5.55;3.05;;;17.50;89.60;;;;;;5091207;28;20033;-73
2023/01/06 10:22:54;;;;;;;6.32;3.33;;;17.30;89.40;;;;;;5077249;28;20854;-74
2023/01/06 10:25:21;;;;;;;6.10;3.47;;;17.50;89.70;;;;;;5060422;28;20040;-74
2023/01/06 10:28:10;;;;;;;4.93;2.97;;;17.20;89.30;;;;;;5094711;28;20029;-74
2023/01/06 10:30:46;;;;;;;5.57;2.72;;;17.20;89.30;;;;;;5070916;28;20037;-74
2023/01/06 10:33:25;;;;;;;5.13;2.80;;;17.50;89.40;;;;;;5076171;28;20032;-74
2023/01/06 10:35:53;;;;;;;6.13;3.50;;;17.70;89.40;;;;;;5068214;28;20048;-73
2023/01/06 10:38:32;;;;;;;6.43;3.65;;;17.90;88.80;;;;;;5065605;28;20094;-74
2023/01/06 10:41:45;;;;;;;5.65;3.25;;;17.90;88.30;;;;;;5063989;28;20048;-74
2023/01/06 10:44:13;;;;;;;5.90;3.58;;;18.00;88.70;;;;;;4997726;28;20051;-74
2023/01/06 10:46:40;;;;;;;6.15;3.45;;;18.00;88.50;;;;;;5064587;28;20087;-74
2023/01/06 10:49:17;;;;;;;6.50;3.53;;;18.70;88.00;;;;;;5063971;28;20036;-73
2023/01/06 10:51:56;;;;;;;6.00;2.85;;;18.80;87.60;;;;;;5076835;28;20077;-75
2023/01/06 10:54:28;;;;;;;5.63;2.97;;;18.80;88.00;;;;;;5056875;28;20128;-76
2023/01/06 10:57:04;;;;;;;6.05;3.33;;;19.00;87.50;;;;;;5068299;28;20028;-76
2023/01/06 10:59:30;;;;;;;5.40;3.20;;;19.40;87.00;;;;;;5074840;28;20040;-76
2023/01/06 11:01:57;;;;;;;5.70;3.13;;;19.40;86.20;;;;;;5076772;28;20075;-75
2023/01/06 11:04:27;;;;;;;6.15;3.22;;;19.30;86.70;;;;;;5075382;28;20103;-77
2023/01/06 11:06:57;;;;;;;5.82;3.05;;;19.30;87.10;;;;;;5062775;28;20047;-76
2023/01/06 11:09:29;;;;;;;5.07;3.08;;;19.70;87.10;;;;;;5088847;28;20594;-77
2023/01/06 11:11:58;;;;;;;5.70;3.28;;;20.10;86.60;;;;;;5083076;28;20164;-76
2023/01/06 11:14:29;;;;;;;5.50;3.20;;;20.10;85.80;;;;;;5086137;28;20035;-76
2023/01/06 11:17:08;;;;;;;5.85;3.15;;;20.20;86.20;;;;;;5084727;28;20089;-76
2023/01/06 11:19:42;;;;;;;5.00;2.92;;;20.50;85.80;;;;;;5080607;28;20112;-76
2023/01/06 11:22:34;;;;;;;4.72;2.63;;;20.70;85.80;;;;;;5075702;28;20042;-77
2023/01/06 11:25:01;;;;;;;5.93;2.80;;;21.30;85.00;;;;;;5078584;28;20032;-77
2023/01/06 11:27:27;;;;;;;4.95;2.90;;;21.60;84.00;;;;;;5081403;28;20063;-77
2023/01/06 11:29:54;;;;;;;5.15;3.00;;;21.90;84.20;;;;;;5084467;28;20025;-76
2023/01/06 11:32:27;;;;;;;4.57;2.45;;;22.20;83.80;;;;;;5081390;28;20041;-75
2023/01/06 11:35:02;;;;;;;6.15;2.65;;;22.20;83.40;;;;;;5088244;28;20399;-77
2023/01/06 11:37:32;;;;;;;5.35;2.78;;;22.70;82.70;;;;;;5084928;28;20052;-76
2023/01/06 11:39:57;;;;;;;4.53;2.25;;;22.70;82.30;;;;;;5076167;28;20052;-77
2023/01/06 11:42:24;;;;;;;5.05;2.50;;;22.90;81.70;;;;;;5061230;28;20059;-76
2023/01/06 11:44:50;;;;;;;4.57;2.50;;;22.80;81.60;;;;;;5068734;28;20037;-76
2023/01/06 11:47:25;;;;;;;7.05;2.67;;;22.90;81.80;;;;;;5085212;28;20044;-76
2023/01/06 11:49:54;;;;;;;6.80;2.95;;;22.80;81.60;;;;;;5067875;28;20565;-76
2023/01/06 11:52:30;;;;;;;5.28;2.83;;;22.60;81.70;;;;;;5083392;28;20460;-75
2023/01/06 11:55:29;;;;;;;4.63;2.72;;;22.70;81.60;;;;;;5071677;28;20119;-76
2023/01/06 11:58:20;;;;;;;5.38;2.90;;;22.80;81.40;;;;;;5073058;28;20055;-76
2023/01/06 12:00:56;;;;;;;6.95;3.42;;;22.70;81.30;;;;;;5069594;28;20055;-76
2023/01/06 12:03:31;;;;;;;5.20;3.90;;;23.30;81.00;;;;;;5069451;28;20458;-75
2023/01/06 12:06:03;;;;;;;6.78;4.75;;;24.10;80.30;;;;;;5079524;28;20037;-74
2023/01/06 12:08:32;;;;;;;6.55;4.65;;;24.50;79.10;;;;;;5085966;28;20915;-76
2023/01/06 12:11:05;;;;;;;7.05;4.93;;;24.30;79.10;;;;;;5098512;28;20024;-75
2023/01/06 12:13:32;;;;;;;8.20;4.55;;;24.40;79.00;;;;;;5117786;27;20027;-76
2023/01/06 12:16:11;;;;;;;6.53;4.35;;;24.50;78.60;;;;;;5088647;28;20037;-76
2023/01/06 12:18:40;;;;;;;6.43;3.97;;;24.80;78.40;;;;;;5085826;28;20032;-76
2023/01/06 12:21:13;;;;;;;5.68;4.05;;;24.70;78.40;;;;;;5091511;28;20513;-77
2023/01/06 12:23:43;;;;;;;7.25;4.03;;;24.70;78.20;;;;;;5083283;28;20028;-76
2023/01/06 12:26:20;;;;;;;6.80;4.38;;;25.30;77.30;;;;;;5088776;28;20063;-76
2023/01/06 12:28:48;;;;;;;11.45;6.30;;;25.20;77.30;;;;;;5090719;28;20028;-76
2023/01/06 12:31:21;;;;;;;6.75;4.43;;;25.10;77.20;;;;;;5079943;28;20102;-75
2023/01/06 12:33:50;;;;;;;7.85;4.45;;;25.20;76.70;;;;;;5087117;28;20024;-76
2023/01/06 12:36:27;;;;;;;6.07;3.78;;;25.10;76.70;;;;;;5077710;28;20028;-76
2023/01/06 12:39:16;;;;;;;7.70;4.85;;;25.20;76.70;;;;;;5087728;28;20028;-76
2023/01/06 12:41:55;;;;;;;7.63;4.18;;;25.10;76.80;;;;;;5083882;28;20028;-76
2023/01/06 12:44:21;;;;;;;7.82;5.05;;;25.30;77.10;;;;;;5085299;28;20047;-77
2023/01/06 12:46:58;;;;;;;7.35;4.80;;;25.30;76.80;;;;;;5099941;28;20032;-77
2023/01/06 12:49:52;;;;;;;9.05;4.30;;;26.10;75.80;;;;;;5085275;28;20032;-77
2023/01/06 12:52:32;;;;;;;6.63;4.30;;;26.10;76.40;;;;;;5091655;28;20066;-76
2023/01/06 12:54:59;;;;;;;8.30;5.03;;;25.80;76.20;;;;;;5084813;28;20020;-76
2023/01/06 12:57:52;;;;;;;7.32;4.95;;;26.30;75.70;;;;;;5104573;27;20036;-76
2023/01/06 13:00:50;;;;;;;7.95;5.57;;;26.50;75.80;;;;;;5052188;28;20058;-76
2023/01/06 13:03:31;;;;;;;7.68;5.38;;;26.80;75.50;;;;;;5079955;28;20037;-76
2023/01/06 13:06:26;;;;;;;9.65;6.18;;;26.40;74.80;;;;;;5091100;28;20077;-75
2023/01/06 13:09:12;;;;;;;7.60;5.60;;;26.90;75.40;;;;;;5100404;28;20045;-76
2023/01/06 13:11:47;;;;;;;12.73;6.50;;;26.50;75.40;;;;;;5089713;28;20063;-75
2023/01/06 13:14:45;;;;;;;9.35;6.35;;;26.70;75.40;;;;;;5084682;28;20053;-77
2023/01/06 13:17:32;;;;;;;8.65;5.80;;;26.90;75.20;;;;;;5067864;28;20055;-76